Valtellina — ICKF — position and weather

sailwx.info

Track history (hours):
 
Tides and Currents Weather Stations Pressure Air Temp Water Temp Dewpoint Dewpoint Depression Visibility Wind Speed Wind Dir Waves Ship Positions

Valtellina

Last reported at 2016-May-04 20:33 UTC. Time now 2016-May-04 21:06 UTC.
Position N 40°56' E 002°36'.

Length 184 m; draft 10 m.

Type: Ship (hazmat cat A). MMSI: 247243900.

Date/timePositionNaut miles runAvg speedWind from/ knotsBaromVisibWave heightAir tempDewpointWater temp
2016-May-04 20:33N 40°56' E 002°36'1212.2
2016-May-04 19:33N 40°50' E 002°50'1212.5
2016-May-04 18:33N 40°45' E 003°05'1212.4
2016-May-04 17:33N 40°39' E 003°20'27511.4
2016-May-03 17:33N 38°46' E 008°45'1211.7
2016-May-03 16:32N 38°45' E 009°00'1111.5
2016-May-03 15:32N 38°45' E 009°15'1211.6
2016-May-03 14:32N 38°45' E 009°30'7 6.2
2016-May-03 13:23N 38°45' E 009°39'1 0.9
2016-May-03 12:33N 38°45' E 009°38'1 0.8
2016-May-03 11:33N 38°45' E 009°37'4 0.9
2016-May-03 07:33N 38°45' E 009°32'1 0.9
2016-May-03 06:33N 38°46' E 009°31'5 0.8
2016-May-02 23:33N 38°47' E 009°25'1 0.6
2016-May-02 22:14N 38°47' E 009°24'0 0.6
2016-May-02 21:33N 38°48' E 009°24'1 0.7
2016-May-02 20:33N 38°48' E 009°23'1 0.8
2016-May-02 19:32N 38°48' E 009°22'1 0.9
2016-May-02 18:28N 38°49' E 009°21'1 1.1
2016-May-02 17:32N 38°50' E 009°20'3 2.7
2016-May-02 16:32N 38°48' E 009°23'16 0.3
2016-Apr-30 14:17N 38°42' E 009°41'20 7.1
2016-Apr-30 11:24N 38°50' E 009°17'5 6.4
2016-Apr-30 10:33N 38°53' E 009°11'1 1.2
2016-Apr-30 09:30N 38°52' E 009°12'1 1.2
2016-Apr-30 08:33N 38°52' E 009°14'1 1.3
2016-Apr-30 07:33N 38°51' E 009°15'1 1.2
2016-Apr-30 06:33N 38°51' E 009°17'1 0.9
2016-Apr-30 05:33N 38°51' E 009°18'1 0.9
2016-Apr-30 04:33N 38°51' E 009°19'0 0.2
2016-Apr-30 03:33N 38°51' E 009°19'7 6.5
2016-Apr-30 02:32N 38°57' E 009°16'1212.2
2016-Apr-30 01:32N 39°05' E 009°04'2 1.7
2016-Apr-30 00:33N 39°05' E 009°02'0 0.0
2016-Apr-29 23:33N 39°05' E 009°02'0 0.0
2016-Apr-29 22:33N 39°05' E 009°02'0 0.0
2016-Apr-29 21:33N 39°05' E 009°02'0 0.0
2016-Apr-29 20:33N 39°05' E 009°02'0 0.0
2016-Apr-29 19:33N 39°05' E 009°02'0 0.0
2016-Apr-29 18:33N 39°05' E 009°02'0 0.0
2016-Apr-29 17:32N 39°05' E 009°02'0 0.0
2016-Apr-29 16:33N 39°05' E 009°02'0 0.0
2016-Apr-29 15:33N 39°05' E 009°02'0 0.0
2016-Apr-29 14:33N 39°05' E 009°02'0 0.0
2016-Apr-29 13:33N 39°05' E 009°02'0 0.0
2016-Apr-29 12:33N 39°05' E 009°02'0 0.0
2016-Apr-29 11:33N 39°05' E 009°02'0 0.0
2016-Apr-29 10:33N 39°05' E 009°02'0 0.0
2016-Apr-29 09:33N 39°05' E 009°02'0 0.0
2016-Apr-29 08:33N 39°05' E 009°02'0 0.0
2016-Apr-29 07:33N 39°05' E 009°02'0 0.0
2016-Apr-29 06:33N 39°05' E 009°02'0 0.0
2016-Apr-29 05:33N 39°05' E 009°02'0 0.0
2016-Apr-29 04:33N 39°05' E 009°02'0 0.0
2016-Apr-29 03:33N 39°05' E 009°02'0 0.0
2016-Apr-29 02:33N 39°05' E 009°02'0 0.0
2016-Apr-29 01:32N 39°05' E 009°02'0 0.0
2016-Apr-29 00:32N 39°05' E 009°02'0 0.0
2016-Apr-28 23:33N 39°05' E 009°02'0 0.0
2016-Apr-28 22:30N 39°05' E 009°02'0 0.0
2016-Apr-28 21:33N 39°05' E 009°02'0 0.0
2016-Apr-28 20:33N 39°05' E 009°02'0 0.0
2016-Apr-28 19:32N 39°05' E 009°02'2 1.6
2016-Apr-28 18:32N 39°04' E 009°04'0 0.4
2016-Apr-28 17:32N 39°04' E 009°04'0 0.0
2016-Apr-28 16:17N 39°04' E 009°04'0 0.1
2016-Apr-28 15:32N 39°04' E 009°04'0 0.0
2016-Apr-28 14:32N 39°04' E 009°04'0 0.0
2016-Apr-28 13:32N 39°04' E 009°04'0 0.0
2016-Apr-28 12:32N 39°04' E 009°04'0 0.0
2016-Apr-28 11:32N 39°04' E 009°04'0 0.0
2016-Apr-28 10:32N 39°04' E 009°04'1 0.2
2016-Apr-28 06:25N 39°03' E 009°04'7 8.0
2016-Apr-28 05:33N 38°56' E 009°04'1312.7
2016-Apr-28 04:33N 38°47' E 008°53'1712.5
2016-Apr-28 03:13N 38°42' E 008°32'812.4
2016-Apr-28 02:33N 38°40' E 008°22'1212.4
2016-Apr-28 01:33N 38°36' E 008°07'1212.4
2016-Apr-28 00:33N 38°32' E 007°52'1212.5
2016-Apr-27 23:33N 38°29' E 007°37'1312.6
2016-Apr-27 22:33N 38°27' E 007°21'11212.3
2016-Apr-27 13:28N 37°57' E 005°03'1312.3
2016-Apr-27 12:26N 37°54' E 004°48'2812.2
2016-Apr-27 10:10N 37°47' E 004°14'812.1
2016-Apr-27 09:31N 37°44' E 004°05'1212.1
2016-Apr-27 08:33N 37°41' E 003°50'1212.4
2016-Apr-27 07:33N 37°38' E 003°35'4212.7
2016-Apr-27 04:13N 37°27' E 002°44'913.1
2016-Apr-27 03:33N 37°25' E 002°33'2613.0
2016-Apr-27 01:33N 37°17' E 002°02'1313.1
2016-Apr-27 00:33N 37°14' E 001°46'2912.7
2016-Apr-26 22:13N 37°06' E 001°10'1012.5
2016-Apr-26 21:26N 37°04' E 000°58'1112.6
2016-Apr-26 20:33N 37°01' E 000°45'1212.1
2016-Apr-26 19:33N 36°58' E 000°30'1312.6
2016-Apr-26 18:33N 36°54' E 000°15'1313.2
2016-Apr-26 17:33N 36°51' W 000°01'1313.2
2016-Apr-26 16:33N 36°47' W 000°17'1313.3
2016-Apr-26 15:33N 36°44' W 000°33'1312.9
2016-Apr-26 14:33N 36°40' W 000°48'3912.7
2016-Apr-26 11:27N 36°30' W 001°36'17912.9
2016-Apr-25 21:33N 35°60' W 005°14'  
Track history (hours):
 
Tides and Currents Weather Stations Pressure Air Temp Water Temp Dewpoint Dewpoint Depression Visibility Wind Speed Wind Dir Waves Ship Positions

Valtellina

Last reported at 2016-May-04 20:33 UTC. Time now 2016-May-04 21:06 UTC.
Position N 40°56' E 002°36'.

Length 184 m; draft 10 m.

Type: Ship (hazmat cat A). MMSI: 247243900.

Date/timePositionNaut miles runAvg speedWind from/ knotsBaromVisibWave heightAir tempDewpointWater temp
2016-May-04 20:33N 40°56' E 002°36'1212.2
2016-May-04 19:33N 40°50' E 002°50'1212.5
2016-May-04 18:33N 40°45' E 003°05'1212.4
2016-May-04 17:33N 40°39' E 003°20'27511.4
2016-May-03 17:33N 38°46' E 008°45'1211.7
2016-May-03 16:32N 38°45' E 009°00'1111.5
2016-May-03 15:32N 38°45' E 009°15'1211.6
2016-May-03 14:32N 38°45' E 009°30'7 6.2
2016-May-03 13:23N 38°45' E 009°39'1 0.9
2016-May-03 12:33N 38°45' E 009°38'1 0.8
2016-May-03 11:33N 38°45' E 009°37'4 0.9
2016-May-03 07:33N 38°45' E 009°32'1 0.9
2016-May-03 06:33N 38°46' E 009°31'5 0.8
2016-May-02 23:33N 38°47' E 009°25'1 0.6
2016-May-02 22:14N 38°47' E 009°24'0 0.6
2016-May-02 21:33N 38°48' E 009°24'1 0.7
2016-May-02 20:33N 38°48' E 009°23'1 0.8
2016-May-02 19:32N 38°48' E 009°22'1 0.9
2016-May-02 18:28N 38°49' E 009°21'1 1.1
2016-May-02 17:32N 38°50' E 009°20'3 2.7
2016-May-02 16:32N 38°48' E 009°23'16 0.3
2016-Apr-30 14:17N 38°42' E 009°41'20 7.1
2016-Apr-30 11:24N 38°50' E 009°17'5 6.4
2016-Apr-30 10:33N 38°53' E 009°11'1 1.2
2016-Apr-30 09:30N 38°52' E 009°12'1 1.2
2016-Apr-30 08:33N 38°52' E 009°14'1 1.3
2016-Apr-30 07:33N 38°51' E 009°15'1 1.2
2016-Apr-30 06:33N 38°51' E 009°17'1 0.9
2016-Apr-30 05:33N 38°51' E 009°18'1 0.9
2016-Apr-30 04:33N 38°51' E 009°19'0 0.2
2016-Apr-30 03:33N 38°51' E 009°19'7 6.5
2016-Apr-30 02:32N 38°57' E 009°16'1212.2
2016-Apr-30 01:32N 39°05' E 009°04'2 1.7
2016-Apr-30 00:33N 39°05' E 009°02'0 0.0
2016-Apr-29 23:33N 39°05' E 009°02'0 0.0
2016-Apr-29 22:33N 39°05' E 009°02'0 0.0
2016-Apr-29 21:33N 39°05' E 009°02'0 0.0
2016-Apr-29 20:33N 39°05' E 009°02'0 0.0
2016-Apr-29 19:33N 39°05' E 009°02'0 0.0
2016-Apr-29 18:33N 39°05' E 009°02'0 0.0
2016-Apr-29 17:32N 39°05' E 009°02'0 0.0
2016-Apr-29 16:33N 39°05' E 009°02'0 0.0
2016-Apr-29 15:33N 39°05' E 009°02'0 0.0
2016-Apr-29 14:33N 39°05' E 009°02'0 0.0
2016-Apr-29 13:33N 39°05' E 009°02'0 0.0
2016-Apr-29 12:33N 39°05' E 009°02'0 0.0
2016-Apr-29 11:33N 39°05' E 009°02'0 0.0
2016-Apr-29 10:33N 39°05' E 009°02'0 0.0
2016-Apr-29 09:33N 39°05' E 009°02'0 0.0
2016-Apr-29 08:33N 39°05' E 009°02'0 0.0
2016-Apr-29 07:33N 39°05' E 009°02'0 0.0
2016-Apr-29 06:33N 39°05' E 009°02'0 0.0
2016-Apr-29 05:33N 39°05' E 009°02'0 0.0
2016-Apr-29 04:33N 39°05' E 009°02'0 0.0
2016-Apr-29 03:33N 39°05' E 009°02'0 0.0
2016-Apr-29 02:33N 39°05' E 009°02'0 0.0
2016-Apr-29 01:32N 39°05' E 009°02'0 0.0
2016-Apr-29 00:32N 39°05' E 009°02'0 0.0
2016-Apr-28 23:33N 39°05' E 009°02'0 0.0
2016-Apr-28 22:30N 39°05' E 009°02'0 0.0
2016-Apr-28 21:33N 39°05' E 009°02'0 0.0
2016-Apr-28 20:33N 39°05' E 009°02'0 0.0
2016-Apr-28 19:32N 39°05' E 009°02'2 1.6
2016-Apr-28 18:32N 39°04' E 009°04'0 0.4
2016-Apr-28 17:32N 39°04' E 009°04'0 0.0
2016-Apr-28 16:17N 39°04' E 009°04'0 0.1
2016-Apr-28 15:32N 39°04' E 009°04'0 0.0
2016-Apr-28 14:32N 39°04' E 009°04'0 0.0
2016-Apr-28 13:32N 39°04' E 009°04'0 0.0
2016-Apr-28 12:32N 39°04' E 009°04'0 0.0
2016-Apr-28 11:32N 39°04' E 009°04'0 0.0
2016-Apr-28 10:32N 39°04' E 009°04'1 0.2
2016-Apr-28 06:25N 39°03' E 009°04'7 8.0
2016-Apr-28 05:33N 38°56' E 009°04'1312.7
2016-Apr-28 04:33N 38°47' E 008°53'1712.5
2016-Apr-28 03:13N 38°42' E 008°32'812.4
2016-Apr-28 02:33N 38°40' E 008°22'1212.4
2016-Apr-28 01:33N 38°36' E 008°07'1212.4
2016-Apr-28 00:33N 38°32' E 007°52'1212.5
2016-Apr-27 23:33N 38°29' E 007°37'1312.6
2016-Apr-27 22:33N 38°27' E 007°21'11212.3
2016-Apr-27 13:28N 37°57' E 005°03'1312.3
2016-Apr-27 12:26N 37°54' E 004°48'2812.2
2016-Apr-27 10:10N 37°47' E 004°14'812.1
2016-Apr-27 09:31N 37°44' E 004°05'1212.1
2016-Apr-27 08:33N 37°41' E 003°50'1212.4
2016-Apr-27 07:33N 37°38' E 003°35'4212.7
2016-Apr-27 04:13N 37°27' E 002°44'913.1
2016-Apr-27 03:33N 37°25' E 002°33'2613.0
2016-Apr-27 01:33N 37°17' E 002°02'1313.1
2016-Apr-27 00:33N 37°14' E 001°46'2912.7
2016-Apr-26 22:13N 37°06' E 001°10'1012.5
2016-Apr-26 21:26N 37°04' E 000°58'1112.6
2016-Apr-26 20:33N 37°01' E 000°45'1212.1
2016-Apr-26 19:33N 36°58' E 000°30'1312.6
2016-Apr-26 18:33N 36°54' E 000°15'1313.2
2016-Apr-26 17:33N 36°51' W 000°01'1313.2
2016-Apr-26 16:33N 36°47' W 000°17'1313.3
2016-Apr-26 15:33N 36°44' W 000°33'1312.9
2016-Apr-26 14:33N 36°40' W 000°48'3912.7
2016-Apr-26 11:27N 36°30' W 001°36'17912.9
2016-Apr-25 21:33N 35°60' W 005°14'  

Dump ship's entire track history